Time;durP1;ratioP1;P1;durP2;ratioP2;P2;SDS_P1;SDS_P2;PMS_P1;PMS_P2;Temp;Humidity;BMP_temperature;BMP_pressure;BME280_temperature;BME280_humidity;BME280_pressure;Samples;Min_cycle;Max_cycle;Signal;HPM_P1;HPM_P2
2022/08/18 00:00:43;;;;;;;;;;;;;;;17.44;100.00;101235.41;6544224;22;22572;-84
2022/08/18 00:03:15;;;;;;;;;;;;;;;17.41;100.00;101243.00;6545507;22;19911;-84
2022/08/18 00:05:46;;;;;;;;;;;;;;;17.44;100.00;101240.78;6544837;22;19899;-82
2022/08/18 00:08:17;;;;;;;;;;;;;;;17.51;100.00;101255.28;6545250;22;19910;-83
2022/08/18 00:10:48;;;;;;;;;;;;;;;17.60;100.00;101264.16;6545438;22;19908;-83
2022/08/18 00:13:20;;;;;;;;;;;;;;;17.68;100.00;101263.25;6545349;22;19910;-83
2022/08/18 00:15:51;;;;;;;;;;;;;;;17.71;100.00;101261.03;6544650;22;19934;-83
2022/08/18 00:18:23;;;;;;;;;;;;;;;17.77;100.00;101264.88;6545312;22;19907;-83
2022/08/18 00:20:54;;;;;;;;;;;;;;;17.80;100.00;101264.50;6545527;22;20234;-82
2022/08/18 00:23:29;;;;;;;;;;;;;;;17.84;100.00;101265.00;6545493;22;19908;-83
2022/08/18 00:26:02;;;;;;;;;;;;;;;17.87;100.00;101264.66;6544844;22;20277;-83
2022/08/18 00:28:33;;;;;;;;;;;;;;;17.90;100.00;101275.94;6545610;22;19982;-84
2022/08/18 00:31:05;;;;;;;;;;;;;;;17.89;100.00;101271.56;6545542;22;19947;-83
2022/08/18 00:33:36;;;;;;;;;;;;;;;17.93;100.00;101275.59;6544714;22;19907;-83
2022/08/18 00:36:08;;;;;;;;;;;;;;;17.95;100.00;101278.94;6545067;22;19903;-84
2022/08/18 00:38:39;;;;;;;;;;;;;;;17.99;100.00;101276.72;6544830;22;20219;-83
2022/08/18 00:41:11;;;;;;;;;;;;;;;17.98;100.00;101277.72;6545268;22;20156;-83
2022/08/18 00:43:46;;;;;;;;;;;;;;;18.02;100.00;101281.75;6545106;22;20226;-82
2022/08/18 00:46:19;;;;;;;;;;;;;;;18.04;100.00;101295.03;6544612;22;20038;-83
2022/08/18 00:48:51;;;;;;;;;;;;;;;18.03;100.00;101290.69;6544639;22;19903;-84
2022/08/18 00:51:46;;;;;;;;;;;;;;;18.02;100.00;101291.69;6544949;22;20234;-84
2022/08/18 00:54:21;;;;;;;;;;;;;;;17.98;100.00;101285.00;6521628;22;20234;-83
2022/08/18 00:56:55;;;;;;;;;;;;;;;17.91;100.00;101284.88;6542322;22;19935;-84
2022/08/18 00:59:33;;;;;;;;;;;;;;;17.78;100.00;101277.34;6515908;22;20326;-84
2022/08/18 01:02:09;;;;;;;;;;;;;;;17.66;100.00;101276.09;6542823;22;19954;-84
2022/08/18 01:04:58;;;;;;;;;;;;;;;17.53;100.00;101279.34;6543382;22;19908;-84
2022/08/18 01:07:35;;;;;;;;;;;;;;;17.40;100.00;101277.22;6542416;22;20338;-84
2022/08/18 01:10:06;;;;;;;;;;;;;;;17.31;100.00;101281.00;6542772;22;20249;-84
2022/08/18 01:12:38;;;;;;;;;;;;;;;17.22;100.00;101276.66;6542906;22;19907;-84
2022/08/18 01:15:09;;;;;;;;;;;;;;;17.15;100.00;101271.13;6543149;22;19914;-84
2022/08/18 01:23:44;;;;;;;;;;;;;;;17.07;100.00;101268.47;6542376;22;19907;-84
2022/08/18 01:26:16;;;;;;;;;;;;;;;17.06;100.00;101275.72;6542258;22;19981;-84
2022/08/18 01:28:48;;;;;;;;;;;;;;;17.03;100.00;101265.28;6542467;22;19907;-84
2022/08/18 01:31:36;;;;;;;;;;;;;;;16.95;100.00;101259.91;6515164;22;20287;-84
2022/08/18 01:34:09;;;;;;;;;;;;;;;16.84;100.00;101266.53;6542609;22;20334;-83
2022/08/18 01:36:41;;;;;;;;;;;;;;;16.75;100.00;101271.06;6542583;22;19990;-84
2022/08/18 01:39:12;;;;;;;;;;;;;;;16.73;100.00;101267.69;6542452;22;20323;-83
2022/08/18 01:41:44;;;;;;;;;;;;;;;16.71;100.00;101264.34;6541432;22;19920;-83
2022/08/18 01:44:15;;;;;;;;;;;;;;;16.73;100.00;101269.56;6515951;22;19908;-84
2022/08/18 01:46:46;;;;;;;;;;;;;;;16.71;100.00;101261.66;6542474;22;19916;-83
2022/08/18 01:49:18;;;;;;;;;;;;;;;16.65;100.00;101262.31;6542162;22;19907;-83
2022/08/18 01:51:51;;;;;;;;;;;;;;;16.67;100.00;101265.69;6541968;22;19907;-83
2022/08/18 01:54:22;;;;;;;;;;;;;;;16.70;100.00;101267.22;6515553;22;19922;-83
2022/08/18 01:56:53;;;;;;;;;;;;;;;16.71;100.00;101252.75;6542158;22;19908;-83
2022/08/18 01:59:25;;;;;;;;;;;;;;;16.68;100.00;101256.59;6542655;22;20273;-83
2022/08/18 02:01:58;;;;;;;;;;;;;;;16.60;100.00;101262.88;6515093;22;19907;-83
2022/08/18 02:04:34;;;;;;;;;;;;;;;16.54;100.00;101258.16;6542163;22;19907;-83
2022/08/18 02:07:06;;;;;;;;;;;;;;;16.43;100.00;101248.59;6542885;22;19942;-82
2022/08/18 02:09:39;;;;;;;;;;;;;;;16.35;100.00;101250.44;6542625;22;19903;-83
2022/08/18 02:12:10;;;;;;;;;;;;;;;16.31;100.00;101258.03;6542183;22;20246;-83
2022/08/18 02:14:42;;;;;;;;;;;;;;;16.31;100.00;101244.56;6542269;22;19907;-83
2022/08/18 02:17:13;;;;;;;;;;;;;;;16.26;100.00;101252.31;6543293;22;19930;-83
2022/08/18 02:19:45;;;;;;;;;;;;;;;16.23;100.00;101258.88;6542482;22;19914;-83
2022/08/18 02:22:18;;;;;;;;;;;;;;;16.11;100.00;101265.63;6515410;22;20297;-83
2022/08/18 02:24:49;;;;;;;;;;;;;;;16.07;100.00;101251.63;6542769;22;19908;-84
2022/08/18 02:27:20;;;;;;;;;;;;;;;16.04;100.00;101261.91;6542707;22;19966;-84
2022/08/18 02:29:52;;;;;;;;;;;;;;;16.00;100.00;101271.31;6542165;22;20253;-84
2022/08/18 02:32:23;;;;;;;;;;;;;;;15.99;100.00;101262.41;6542908;22;19917;-84
2022/08/18 02:34:54;;;;;;;;;;;;;;;16.00;100.00;101263.25;6515597;22;19907;-84
2022/08/18 02:37:25;;;;;;;;;;;;;;;15.97;100.00;101267.13;6542614;22;20309;-84
2022/08/18 02:39:56;;;;;;;;;;;;;;;15.92;100.00;101272.16;6542873;22;20334;-83
2022/08/18 02:42:28;;;;;;;;;;;;;;;15.92;100.00;101285.63;6541886;22;19915;-84
2022/08/18 02:44:59;;;;;;;;;;;;;;;15.87;100.00;101285.28;6542885;22;19945;-83
2022/08/18 02:47:30;;;;;;;;;;;;;;;15.91;100.00;101273.16;6515443;22;19961;-84
2022/08/18 02:50:02;;;;;;;;;;;;;;;15.91;100.00;101283.91;6542710;22;19907;-84
2022/08/18 02:52:34;;;;;;;;;;;;;;;15.85;100.00;101279.22;6542445;22;20389;-84
2022/08/18 02:55:05;;;;;;;;;;;;;;;15.84;100.00;101282.91;6542378;22;19918;-84
2022/08/18 02:57:41;;;;;;;;;;;;;;;15.80;100.00;101278.88;6541990;22;19904;-84
2022/08/18 03:00:14;;;;;;;;;;;;;;;15.72;100.00;101274.28;6515212;22;20318;-84
2022/08/18 03:02:46;;;;;;;;;;;;;;;15.65;100.00;101268.72;6515495;22;19908;-84
2022/08/18 03:05:18;;;;;;;;;;;;;;;15.65;100.00;101273.25;6541798;22;19904;-84
2022/08/18 03:07:49;;;;;;;;;;;;;;;15.64;100.00;101268.91;6542495;22;19942;-84
2022/08/18 03:10:21;;;;;;;;;;;;;;;15.67;100.00;101271.25;6541779;22;19914;-84
2022/08/18 03:12:52;;;;;;;;;;;;;;;15.57;100.00;101276.78;6542209;22;19903;-84
2022/08/18 03:15:23;;;;;;;;;;;;;;;15.48;100.00;101275.94;6542390;22;20554;-84
2022/08/18 03:17:55;;;;;;;;;;;;;;;15.42;100.00;101270.34;6542746;22;19931;-84
2022/08/18 03:20:26;;;;;;;;;;;;;;;15.46;100.00;101271.69;6514640;22;19943;-84
2022/08/18 03:22:58;;;;;;;;;;;;;;;15.69;100.00;101285.41;6542081;22;20238;-84
2022/08/18 03:25:29;;;;;;;;;;;;;;;15.87;100.00;101286.09;6542478;22;20250;-84
2022/08/18 03:28:01;;;;;;;;;;;;;;;15.97;100.00;101290.47;6542058;22;19911;-84
2022/08/18 03:30:33;;;;;;;;;;;;;;;15.97;100.00;101291.34;6541683;22;19908;-84
2022/08/18 03:33:04;;;;;;;;;;;;;;;15.97;100.00;101285.09;6542171;22;19907;-84
2022/08/18 03:35:36;;;;;;;;;;;;;;;15.97;100.00;101293.16;6542727;22;19903;-84
2022/08/18 03:38:07;;;;;;;;;;;;;;;15.99;100.00;101293.88;6541961;22;20245;-84
2022/08/18 03:40:38;;;;;;;;;;;;;;;16.04;100.00;101297.72;6541552;22;19912;-84
2022/08/18 03:43:09;;;;;;;;;;;;;;;16.02;100.00;101305.13;6541909;22;19903;-84
2022/08/18 03:45:41;;;;;;;;;;;;;;;16.00;100.00;101298.22;6514644;22;19934;-84
2022/08/18 03:48:12;;;;;;;;;;;;;;;15.94;100.00;101297.03;6542549;22;19986;-84
2022/08/18 03:50:45;;;;;;;;;;;;;;;15.87;100.00;101296.03;6541696;22;19950;-86
2022/08/18 03:53:16;;;;;;;;;;;;;;;15.77;100.00;101298.03;6541881;22;19908;-86
2022/08/18 03:55:47;;;;;;;;;;;;;;;15.69;100.00;101304.22;6542039;22;19911;-85
2022/08/18 03:58:18;;;;;;;;;;;;;;;15.58;100.00;101294.59;6541726;22;19914;-85
2022/08/18 04:00:49;;;;;;;;;;;;;;;15.60;100.00;101297.13;6515306;22;19907;-85
2022/08/18 04:03:21;;;;;;;;;;;;;;;15.63;100.00;101296.78;6542125;22;19978;-84
2022/08/18 04:05:52;;;;;;;;;;;;;;;15.62;100.00;101292.41;6541028;22;19913;-84
2022/08/18 04:08:23;;;;;;;;;;;;;;;15.64;100.00;101298.50;6514290;22;19911;-83
2022/08/18 04:10:55;;;;;;;;;;;;;;;15.65;100.00;101300.97;6541968;22;19951;-83
2022/08/18 04:13:26;;;;;;;;;;;;;;;15.71;100.00;101291.44;6541170;22;19954;-83
2022/08/18 04:15:58;;;;;;;;;;;;;;;15.83;100.00;101287.47;6541874;22;20245;-84
2022/08/18 04:18:30;;;;;;;;;;;;;;;15.97;100.00;101290.47;6541824;22;19974;-84
2022/08/18 04:21:06;;;;;;;;;;;;;;;16.07;100.00;101294.69;6541567;22;19912;-84
2022/08/18 04:23:38;;;;;;;;;;;;;;;16.12;100.00;101293.34;6541713;22;19910;-84
2022/08/18 04:26:11;;;;;;;;;;;;;;;16.15;100.00;101293.88;6541851;22;20401;-84
2022/08/18 04:28:42;;;;;;;;;;;;;;;16.20;100.00;101294.19;6541155;22;20435;-83
2022/08/18 04:31:14;;;;;;;;;;;;;;;16.25;100.00;101299.06;6542292;22;19904;-83
2022/08/18 04:33:45;;;;;;;;;;;;;;;16.25;100.00;101289.16;6542829;22;20329;-83
2022/08/18 04:36:17;;;;;;;;;;;;;;;16.25;100.00;101289.16;6543038;22;19919;-83
2022/08/18 04:38:48;;;;;;;;;;;;;;;16.29;100.00;101304.97;6541786;22;19950;-83
2022/08/18 04:41:23;;;;;;;;;;;;;;;16.36;100.00;101308.66;6542999;22;19907;-83
2022/08/18 04:43:57;;;;;;;;;;;;;;;16.34;100.00;101306.16;6542410;22;20377;-83
2022/08/18 04:46:28;;;;;;;;;;;;;;;16.38;100.00;101302.09;6542504;22;19994;-84
2022/08/18 04:49:03;;;;;;;;;;;;;;;16.40;100.00;101301.94;6542569;22;20318;-81
2022/08/18 04:51:34;;;;;;;;;;;;;;;16.40;100.00;101316.22;6541917;22;19908;-82
2022/08/18 04:54:06;;;;;;;;;;;;;;;16.45;100.00;101310.34;6541649;22;19914;-82
2022/08/18 04:56:37;;;;;;;;;;;;;;;16.49;100.00;101310.84;6516015;22;19903;-82
2022/08/18 04:59:12;;;;;;;;;;;;;;;16.49;100.00;101314.38;6541537;22;19957;-82
2022/08/18 05:01:44;;;;;;;;;;;;;;;16.49;100.00;101314.38;6543035;22;19934;-82
2022/08/18 05:04:16;;;;;;;;;;;;;;;16.53;100.00;101302.25;6544071;22;19911;-81
2022/08/18 05:06:47;;;;;;;;;;;;;;;16.55;100.00;101312.84;6546346;22;19910;-83
2022/08/18 05:09:19;;;;;;;;;;;;;;;16.54;100.00;101309.31;6518930;22;19907;-83
2022/08/18 05:11:50;;;;;;;;;;;;;;;16.55;100.00;101318.22;6544553;22;19904;-84
2022/08/18 05:14:21;;;;;;;;;;;;;;;16.58;100.00;101320.59;6543733;22;20311;-83
2022/08/18 05:16:52;;;;;;;;;;;;;;;16.62;100.00;101322.78;6543425;22;20286;-84
2022/08/18 05:19:25;;;;;;;;;;;;;;;16.67;100.00;101327.63;6516109;22;19907;-84
2022/08/18 05:21:58;;;;;;;;;;;;;;;16.70;100.00;101331.84;6544087;22;19975;-84
2022/08/18 05:24:30;;;;;;;;;;;;;;;16.74;100.00;101330.47;6544088;22;20241;-84
2022/08/18 05:27:02;;;;;;;;;;;;;;;16.82;100.00;101323.22;6543014;22;19908;-84
2022/08/18 05:29:35;;;;;;;;;;;;;;;16.88;100.00;101324.41;6515661;22;19904;-85
2022/08/18 05:32:06;;;;;;;;;;;;;;;16.91;100.00;101321.38;6543058;22;20229;-84
2022/08/18 05:34:40;;;;;;;;;;;;;;;16.97;100.00;101330.63;6516177;22;19968;-84
2022/08/18 05:37:17;;;;;;;;;;;;;;;16.99;100.00;101321.38;6542185;22;19907;-83
2022/08/18 05:39:56;;;;;;;;;;;;;;;17.08;100.00;101329.44;6515007;22;20277;-82
2022/08/18 05:42:29;;;;;;;;;;;;;;;17.11;100.00;101337.16;6515143;22;19903;-82
2022/08/18 05:45:02;;;;;;;;;;;;;;;17.20;100.00;101342.38;6542426;22;19903;-82
2022/08/18 05:47:34;;;;;;;;;;;;;;;17.31;100.00;101334.91;6542362;22;20365;-82
2022/08/18 05:50:10;;;;;;;;;;;;;;;17.38;100.00;101333.19;6515036;22;19912;-81
2022/08/18 05:52:56;;;;;;;;;;;;;;;17.42;100.00;101339.91;6515726;22;19907;-82
2022/08/18 05:58:48;;;;;;;;;;;;;;;17.57;100.00;101343.56;6507127;22;19907;-82
2022/08/18 06:01:22;;;;;;;;;;;;;;;17.59;100.00;101348.78;6536463;22;19962;-82
2022/08/18 06:03:59;;;;;;;;;;;;;;;17.66;100.00;101349.75;6542050;22;19908;-82
2022/08/18 06:06:32;;;;;;;;;;;;;;;17.68;100.00;101346.88;6543412;22;20282;-83
2022/08/18 06:09:09;;;;;;;;;;;;;;;17.74;100.00;101352.41;6515763;22;19907;-83
2022/08/18 06:11:41;;;;;;;;;;;;;;;17.86;100.00;101349.31;6542576;22;20249;-83
2022/08/18 06:14:12;;;;;;;;;;;;;;;18.00;100.00;101350.41;6542584;22;19907;-83
2022/08/18 06:17:08;;;;;;;;;;;;;;;18.18;100.00;101345.56;6543133;22;19911;-84
2022/08/18 06:19:45;;;;;;;;;;;;;;;18.43;100.00;101354.31;6542115;22;19938;-84
2022/08/18 06:22:42;;;;;;;;;;;;;;;18.67;100.00;101339.75;6542716;22;19904;-83
2022/08/18 06:25:18;;;;;;;;;;;;;;;18.93;100.00;101351.16;6541578;22;20364;-82
2022/08/18 06:28:02;;;;;;;;;;;;;;;18.99;100.00;101355.84;6541859;22;20288;-82
2022/08/18 06:30:48;;;;;;;;;;;;;;;18.92;100.00;101361.16;6541718;22;19903;-82
2022/08/18 06:33:31;;;;;;;;;;;;;;;18.85;100.00;101358.34;6542046;22;20234;-82
2022/08/18 06:36:11;;;;;;;;;;;;;;;18.80;100.00;101366.13;6514970;22;20238;-83
2022/08/18 06:39:08;;;;;;;;;;;;;;;18.74;100.00;101364.19;6542643;22;19918;-84
2022/08/18 06:41:49;;;;;;;;;;;;;;;18.86;100.00;101368.13;6472115;22;20227;-85
2022/08/18 06:44:40;;;;;;;;;;;;;;;19.05;100.00;101365.91;6542355;22;19984;-84
2022/08/18 06:47:29;;;;;;;;;;;;;;;19.18;100.00;101373.34;6542549;22;19911;-84
2022/08/18 06:50:07;;;;;;;;;;;;;;;19.18;100.00;101367.94;6542579;22;19907;-81
2022/08/18 06:52:49;;;;;;;;;;;;;;;19.26;100.00;101370.56;6540377;22;19903;-83
2022/08/18 06:55:31;;;;;;;;;;;;;;;19.45;100.00;101366.44;6537565;22;20263;-83
2022/08/18 06:58:06;;;;;;;;;;;;;;;19.45;100.00;101363.75;6512687;22;20065;-83
2022/08/18 07:00:38;;;;;;;;;;;;;;;19.49;100.00;101370.44;6511699;22;19997;-83
2022/08/18 07:03:14;;;;;;;;;;;;;;;19.74;100.00;101367.44;6514109;22;20345;-82
2022/08/18 07:06:00;;;;;;;;;;;;;;;20.00;100.00;101370.47;6514530;22;19903;-83
2022/08/18 07:08:33;;;;;;;;;;;;;;;20.26;100.00;101370.94;6513727;22;19911;-84
2022/08/18 07:11:20;;;;;;;;;;;;;;;20.48;100.00;101372.59;6515328;22;19974;-83
2022/08/18 07:13:56;;;;;;;;;;;;;;;20.91;100.00;101369.00;6514041;22;19903;-83
2022/08/18 07:16:27;;;;;;;;;;;;;;;21.01;100.00;101361.34;6540292;22;20376;-83
2022/08/18 07:19:13;;;;;;;;;;;;;;;21.06;100.00;101360.75;6540376;22;19907;-83
2022/08/18 07:21:45;;;;;;;;;;;;;;;21.21;100.00;101360.63;6539857;22;19985;-83
2022/08/18 07:24:27;;;;;;;;;;;;;;;21.43;100.00;101358.66;6512696;22;19908;-83
2022/08/18 07:27:16;;;;;;;;;;;;;;;21.92;100.00;101357.59;6540726;22;19934;-83
2022/08/18 07:30:06;;;;;;;;;;;;;;;21.84;100.00;101347.75;6512167;22;19983;-83
2022/08/18 07:32:46;;;;;;;;;;;;;;;21.73;100.00;101351.06;6540466;22;19954;-83
2022/08/18 07:35:22;;;;;;;;;;;;;;;21.92;100.00;101357.59;6540204;22;19909;-83
2022/08/18 07:37:58;;;;;;;;;;;;;;;22.35;100.00;101348.28;6513080;22;19904;-83
2022/08/18 07:40:44;;;;;;;;;;;;;;;22.91;100.00;101349.72;6548868;22;19934;-83
2022/08/18 07:43:27;;;;;;;;;;;;;;;23.79;100.00;101360.13;6537500;22;19907;-84
2022/08/18 07:46:08;;;;;;;;;;;;;;;24.41;100.00;101349.44;6529908;22;19918;-84
2022/08/18 07:48:40;;;;;;;;;;;;;;;25.41;100.00;101353.94;6524303;22;19907;-84
2022/08/18 07:51:23;;;;;;;;;;;;;;;25.86;100.00;101350.00;6547819;22;19908;-84
2022/08/18 07:54:07;;;;;;;;;;;;;;;25.84;100.00;101346.66;6513682;22;19908;-84
2022/08/18 07:56:47;;;;;;;;;;;;;;;26.41;100.00;101338.84;6514337;22;19907;-83
2022/08/18 07:59:24;;;;;;;;;;;;;;;26.91;100.00;101340.34;6540630;22;19903;-84
2022/08/18 08:02:13;;;;;;;;;;;;;;;27.27;100.00;101343.84;6540941;22;19908;-83
2022/08/18 08:04:47;;;;;;;;;;;;;;;27.59;100.00;101348.88;6540731;22;20371;-83
2022/08/18 08:07:50;;;;;;;;;;;;;;;27.26;100.00;101350.41;6541411;22;19946;-83
2022/08/18 08:10:31;;;;;;;;;;;;;;;26.53;100.00;101341.59;6417903;22;19950;-82
2022/08/18 08:13:02;;;;;;;;;;;;;;;25.98;100.00;101345.44;6527250;22;19938;-83
2022/08/18 08:15:34;;;;;;;;;;;;;;;26.20;100.00;101342.16;6541314;22;19914;-83
2022/08/18 08:18:08;;;;;;;;;;;;;;;27.22;100.00;101343.72;6541301;22;19908;-84
2022/08/18 08:20:45;;;;;;;;;;;;;;;28.56;100.00;101346.22;6539057;22;20381;-84
2022/08/18 08:23:20;;;;;;;;;;;;;;;29.25;100.00;101337.63;6514400;22;19907;-84
2022/08/18 08:26:10;;;;;;;;;;;;;;;28.81;100.00;101345.81;6540646;22;20242;-84
2022/08/18 08:28:55;;;;;;;;;;;;;;;27.79;100.00;101353.94;6514464;22;20010;-84
2022/08/18 08:31:36;;;;;;;;;;;;;;;26.72;100.00;101355.22;6540223;22;19903;-84
2022/08/18 08:34:12;;;;;;;;;;;;;;;26.37;100.00;101348.59;6540746;22;19976;-84
2022/08/18 08:36:45;;;;;;;;;;;;;;;26.99;100.00;101352.81;6542060;22;19975;-83
2022/08/18 08:39:20;;;;;;;;;;;;;;;27.78;100.00;101352.25;6514022;22;19930;-83
2022/08/18 08:41:59;;;;;;;;;;;;;;;27.92;100.00;101353.66;6541919;22;20042;-83
2022/08/18 08:44:39;;;;;;;;;;;;;;;27.41;100.00;101355.38;6542459;22;20293;-84
2022/08/18 08:47:17;;;;;;;;;;;;;;;27.05;100.00;101356.47;6542786;22;20328;-84
2022/08/18 08:49:48;;;;;;;;;;;;;;;26.76;100.00;101359.13;6541967;22;20335;-83
2022/08/18 08:52:22;;;;;;;;;;;;;;;26.32;100.00;101364.06;6545390;22;19919;-83
2022/08/18 08:54:56;;;;;;;;;;;;;;;25.82;100.00;101363.31;6548931;22;20318;-83
2022/08/18 08:57:34;;;;;;;;;;;;;;;25.90;100.00;101364.03;6518127;22;19911;-83
2022/08/18 09:00:08;;;;;;;;;;;;;;;27.04;100.00;101361.13;6542876;22;19918;-83
2022/08/18 09:02:51;;;;;;;;;;;;;;;27.83;100.00;101360.56;6519620;22;19990;-83
2022/08/18 09:05:24;;;;;;;;;;;;;;;29.26;100.00;101357.69;6554482;22;19927;-83
2022/08/18 09:08:12;;;;;;;;;;;;;;;31.04;100.00;101354.13;6526368;22;20292;-82
2022/08/18 09:11:02;;;;;;;;;;;;;;;32.41;100.00;101357.50;6526185;22;19903;-83
2022/08/18 09:13:52;;;;;;;;;;;;;;;32.13;100.00;101356.13;6550060;22;19911;-82
2022/08/18 09:16:33;;;;;;;;;;;;;;;31.17;100.00;101363.81;6548751;22;19907;-84
2022/08/18 09:19:23;;;;;;;;;;;;;;;30.49;100.00;101362.56;6520101;22;19903;-83
2022/08/18 09:22:09;;;;;;;;;;;;;;;29.75;100.00;101358.56;6547719;22;19919;-81
2022/08/18 09:24:46;;;;;;;;;;;;;;;29.94;100.00;101366.44;6515301;22;20230;-82
2022/08/18 09:27:34;;;;;;;;;;;;;;;32.59;100.00;101359.75;6518201;22;20230;-82
2022/08/18 09:30:07;;;;;;;;;;;;;;;35.09;100.00;101359.56;6542815;22;19914;-82
2022/08/18 09:32:52;;;;;;;;;;;;;;;35.12;100.00;101356.22;6542530;22;19909;-82
2022/08/18 09:35:38;;;;;;;;;;;;;;;33.57;100.00;101350.28;6513922;22;19907;-80
2022/08/18 09:41:31;;;;;;;;;;;;;;;31.08;100.00;101349.72;6541460;22;20318;-82
2022/08/18 09:44:09;;;;;;;;;;;;;;;30.38;100.00;101348.97;6541075;22;19907;-83
2022/08/18 09:46:46;;;;;;;;;;;;;;;29.94;100.00;101353.56;6513460;22;20353;-82
2022/08/18 09:49:29;;;;;;;;;;;;;;;29.87;100.00;101346.59;6513518;22;19912;-83
2022/08/18 09:52:20;;;;;;;;;;;;;;;30.35;100.00;101347.59;6541401;22;20255;-83
2022/08/18 09:54:57;;;;;;;;;;;;;;;30.34;100.00;101340.41;6540520;22;19918;-83
2022/08/18 09:57:29;;;;;;;;;;;;;;;31.16;100.00;101343.72;6513705;22;20018;-82
2022/08/18 10:00:06;;;;;;;;;;;;;;;31.77;100.00;101345.88;6539997;22;19907;-82
2022/08/18 10:02:40;;;;;;;;;;;;;;;31.94;100.00;101348.34;6540468;22;19908;-83
2022/08/18 10:05:15;;;;;;;;;;;;;;;31.59;100.00;101347.22;6512073;22;20007;-83
2022/08/18 10:08:16;;;;;;;;;;;;;;;32.89;100.00;101352.50;6539595;22;20337;-83
2022/08/18 10:10:50;;;;;;;;;;;;;;;36.00;93.19;101340.00;6354306;22;20311;-84
2022/08/18 10:13:21;;;;;;;;;;;;;;;38.03;57.43;101332.59;6540421;22;19907;-83
2022/08/18 10:16:05;;;;;;;;;;;;;;;37.97;57.14;101342.19;6540496;22;19903;-82
2022/08/18 10:18:39;;;;;;;;;;;;;;;37.46;59.82;101337.81;6514300;22;19950;-81
2022/08/18 10:21:17;;;;;;;;;;;;;;;35.54;70.99;101326.84;6540704;22;20013;-83
2022/08/18 10:23:51;;;;;;;;;;;;;;;33.53;72.86;101337.03;6540837;22;20242;-83
2022/08/18 10:26:28;;;;;;;;;;;;;;;32.84;92.33;101338.69;6539640;22;20393;-83
2022/08/18 10:29:01;;;;;;;;;;;;;;;32.00;100.00;101336.25;6541312;22;19908;-82
2022/08/18 10:31:52;;;;;;;;;;;;;;;31.36;100.00;101322.84;6542953;22;20405;-83
2022/08/18 10:34:38;;;;;;;;;;;;;;;30.83;100.00;101318.19;6541279;22;20037;-82
2022/08/18 10:37:16;;;;;;;;;;;;;;;30.74;100.00;101319.78;6541188;22;19903;-82
2022/08/18 10:39:53;;;;;;;;;;;;;;;30.64;100.00;101309.53;6514334;22;19911;-83
2022/08/18 10:42:31;;;;;;;;;;;;;;;30.59;100.00;101311.44;6541454;22;19974;-82
2022/08/18 10:45:14;;;;;;;;;;;;;;;30.34;100.00;101321.13;6541606;22;19919;-82
2022/08/18 10:47:57;;;;;;;;;;;;;;;28.95;100.00;101319.63;6514928;22;19918;-82
2022/08/18 10:50:34;;;;;;;;;;;;;;;28.12;100.00;101322.22;6540622;22;19977;-82
2022/08/18 10:53:14;;;;;;;;;;;;;;;27.30;100.00;101323.38;6515364;22;19907;-82
2022/08/18 10:55:48;;;;;;;;;;;;;;;27.15;100.00;101321.13;6544942;22;19914;-83
2022/08/18 10:58:20;;;;;;;;;;;;;;;27.23;100.00;101320.75;6543287;22;19907;-82
2022/08/18 11:01:10;;;;;;;;;;;;;;;27.32;100.00;101322.06;6544355;22;19966;-82
2022/08/18 11:04:12;;;;;;;;;;;;;;;27.38;100.00;101325.72;6542624;22;19907;-83
2022/08/18 11:06:47;;;;;;;;;;;;;;;27.37;100.00;101328.69;6382762;22;20299;-82
2022/08/18 11:09:26;;;;;;;;;;;;;;;27.07;100.00;101324.22;6541690;22;20238;-82
2022/08/18 11:11:59;;;;;;;;;;;;;;;27.09;100.00;101328.41;6542004;22;19969;-83
2022/08/18 11:14:43;;;;;;;;;;;;;;;27.39;100.00;101313.72;6541223;22;19903;-82
2022/08/18 11:17:17;;;;;;;;;;;;;;;28.13;100.00;101320.28;6540040;22;20022;-82
2022/08/18 11:19:50;;;;;;;;;;;;;;;29.84;100.00;101314.09;6542688;22;19965;-82
2022/08/18 11:22:26;;;;;;;;;;;;;;;32.10;100.00;101313.38;6542757;22;20206;-83
2022/08/18 11:24:58;;;;;;;;;;;;;;;34.64;100.00;101305.19;6543254;22;19904;-83
2022/08/18 11:27:34;;;;;;;;;;;;;;;35.48;100.00;101303.88;6560310;22;19915;-81
2022/08/18 11:30:05;;;;;;;;;;;;;;;35.02;94.03;101299.75;6563650;22;19907;-81
2022/08/18 11:32:38;;;;;;;;;;;;;;;34.91;97.11;101289.13;6559239;22;19908;-82
2022/08/18 11:35:12;;;;;;;;;;;;;;;35.12;99.88;101293.28;6545979;22;19907;-83
2022/08/18 11:37:45;;;;;;;;;;;;;;;34.67;99.70;101293.50;6540075;22;19903;-83
2022/08/18 11:40:25;;;;;;;;;;;;;;;34.28;100.00;101283.41;6512868;22;20085;-84
2022/08/18 11:43:16;;;;;;;;;;;;;;;34.55;76.06;101286.72;6540946;22;19907;-83
2022/08/18 11:45:56;;;;;;;;;;;;;;;35.11;77.18;101274.16;6541100;22;20378;-83
2022/08/18 11:48:27;;;;;;;;;;;;;;;36.92;73.27;101278.38;6543685;22;19938;-83
2022/08/18 11:51:07;;;;;;;;;;;;;;;39.16;74.24;101277.72;6517431;22;20283;-83
2022/08/18 11:53:48;;;;;;;;;;;;;;;40.29;63.75;101271.19;6542855;22;20012;-83
2022/08/18 11:56:19;;;;;;;;;;;;;;;40.19;60.29;101264.81;6542126;22;20220;-83
2022/08/18 11:59:01;;;;;;;;;;;;;;;41.02;51.44;101257.03;6541546;22;19907;-84
2022/08/18 12:01:42;;;;;;;;;;;;;;;41.11;51.00;101266.16;6542874;22;19915;-83
2022/08/18 12:04:15;;;;;;;;;;;;;;;39.32;44.90;101254.56;6541121;22;19971;-83
2022/08/18 12:06:55;;;;;;;;;;;;;;;37.95;49.71;101251.78;6514896;22;20316;-83
2022/08/18 12:10:01;;;;;;;;;;;;;;;37.23;59.54;101259.09;6541109;22;19918;-82
2022/08/18 12:12:33;;;;;;;;;;;;;;;36.48;66.41;101267.53;6325807;23;19909;-83
2022/08/18 12:15:24;;;;;;;;;;;;;;;35.80;74.98;101257.91;6508137;22;20397;-84
2022/08/18 12:17:55;;;;;;;;;;;;;;;35.13;83.13;101258.88;6542646;22;19904;-84
2022/08/18 12:20:27;;;;;;;;;;;;;;;34.69;79.72;101261.94;6541421;22;19907;-84
2022/08/18 12:22:58;;;;;;;;;;;;;;;34.17;87.28;101256.91;6514218;22;19914;-85
2022/08/18 12:25:29;;;;;;;;;;;;;;;33.76;80.58;101250.91;6541359;22;20257;-85
2022/08/18 12:28:01;;;;;;;;;;;;;;;34.75;80.52;101249.69;6515937;22;19911;-85
2022/08/18 12:30:33;;;;;;;;;;;;;;;37.77;65.18;101257.25;6543547;22;19907;-85
2022/08/18 12:33:04;;;;;;;;;;;;;;;39.53;51.65;101262.31;6516724;22;19908;-85
2022/08/18 12:35:36;;;;;;;;;;;;;;;39.17;53.00;101262.59;6541584;22;19907;-84
2022/08/18 12:38:07;;;;;;;;;;;;;;;38.80;51.80;101260.06;6540982;22;19911;-83
2022/08/18 12:40:38;;;;;;;;;;;;;;;38.29;59.54;101269.84;6539754;22;19918;-83
2022/08/18 12:43:10;;;;;;;;;;;;;;;37.66;49.17;101267.00;6540541;22;19911;-83
2022/08/18 12:45:41;;;;;;;;;;;;;;;36.95;64.84;101275.78;6539796;22;19918;-84
2022/08/18 12:48:12;;;;;;;;;;;;;;;36.89;71.12;101266.75;6540573;22;19911;-83
2022/08/18 12:50:44;;;;;;;;;;;;;;;37.47;68.95;101275.50;6540333;22;19914;-84
2022/08/18 12:53:15;;;;;;;;;;;;;;;39.21;52.74;101269.19;6542102;22;19999;-83
2022/08/18 12:55:49;;;;;;;;;;;;;;;39.09;61.06;101267.03;6542465;22;19910;-84
2022/08/18 12:58:20;;;;;;;;;;;;;;;38.68;50.86;101265.47;6515506;22;19907;-84
2022/08/18 13:00:54;;;;;;;;;;;;;;;38.43;49.88;101261.38;6516828;22;19919;-84
2022/08/18 13:03:25;;;;;;;;;;;;;;;38.83;52.41;101270.56;6542772;22;19919;-85
2022/08/18 13:05:59;;;;;;;;;;;;;;;39.80;45.83;101285.41;6543683;22;20330;-84
2022/08/18 13:08:30;;;;;;;;;;;;;;;40.98;48.00;101290.47;6542140;22;19907;-84
2022/08/18 13:11:02;;;;;;;;;;;;;;;41.61;36.17;101291.66;6516607;22;19918;-83
2022/08/18 13:13:33;;;;;;;;;;;;;;;40.38;40.67;101289.59;6541915;22;20333;-84
2022/08/18 13:16:06;;;;;;;;;;;;;;;39.42;49.61;101284.13;6514681;22;19973;-83
2022/08/18 13:18:41;;;;;;;;;;;;;;;38.46;61.33;101288.59;6515367;22;19904;-83
2022/08/18 13:21:14;;;;;;;;;;;;;;;38.06;47.47;101289.34;6543642;22;19989;-84
2022/08/18 13:23:48;;;;;;;;;;;;;;;38.13;48.90;101286.16;6517046;22;20403;-84